Time;durP1;ratioP1;P1;durP2;ratioP2;P2;SDS_P1;SDS_P2;PMS_P1;PMS_P2;Temp;Humidity;BMP_temperature;BMP_pressure;BME280_temperature;BME280_humidity;BME280_pressure;Samples;Min_cycle;Max_cycle;Signal;HPM_P1;HPM_P2
2022/02/07 00:00:46;;;;;;;76.60;39.97;;;4.70;99.90;;;;;;5021476;28;20533;-72
2022/02/07 00:05:39;;;;;;;75.20;38.50;;;4.50;99.90;;;;;;5028046;28;20030;-72
2022/02/07 00:08:08;;;;;;;59.92;34.17;;;4.40;99.90;;;;;;5021877;28;20032;-72
2022/02/07 00:10:36;;;;;;;60.15;31.48;;;4.30;99.90;;;;;;5019434;28;20048;-73
2022/02/07 00:13:02;;;;;;;58.28;30.67;;;4.20;99.90;;;;;;5026075;28;20663;-72
2022/02/07 00:15:28;;;;;;;52.05;30.40;;;4.10;99.90;;;;;;5027626;28;20061;-72
2022/02/07 00:17:53;;;;;;;54.78;30.60;;;4.10;99.90;;;;;;5024090;28;20034;-72
2022/02/07 00:20:21;;;;;;;64.57;35.33;;;4.10;99.90;;;;;;5024228;28;20606;-72
2022/02/07 00:22:48;;;;;;;59.35;33.22;;;4.20;99.90;;;;;;5028213;28;20045;-73
2022/02/07 00:25:15;;;;;;;59.58;33.53;;;4.20;99.90;;;;;;5025416;28;20045;-73
2022/02/07 00:27:41;;;;;;;68.85;37.33;;;4.20;99.90;;;;;;5032612;28;20103;-72
2022/02/07 00:30:10;;;;;;;60.47;33.72;;;4.30;99.90;;;;;;5029900;28;20083;-73
2022/02/07 00:32:36;;;;;;;76.45;44.70;;;4.30;99.90;;;;;;5031681;28;20076;-72
2022/02/07 00:35:04;;;;;;;61.63;36.17;;;4.30;99.90;;;;;;5031117;28;20034;-72
2022/02/07 00:37:30;;;;;;;70.28;38.50;;;4.30;99.90;;;;;;5030574;28;20041;-73
2022/02/07 00:40:26;;;;;;;57.55;33.47;;;4.30;99.90;;;;;;5030123;28;20035;-73
2022/02/07 00:48:10;;;;;;;67.25;37.50;;;4.40;99.90;;;;;;5031651;28;20084;-72
2022/02/07 00:50:41;;;;;;;60.65;34.00;;;4.40;99.90;;;;;;5030131;28;20044;-72
2022/02/07 00:53:09;;;;;;;72.30;39.88;;;4.40;99.90;;;;;;5024886;28;20033;-72
2022/02/07 00:55:35;;;;;;;100.22;60.28;;;4.40;99.90;;;;;;5029051;28;20025;-72
2022/02/07 00:58:02;;;;;;;73.32;38.70;;;4.40;99.90;;;;;;5031547;28;20065;-72
2022/02/07 01:00:28;;;;;;;71.20;37.47;;;4.50;99.90;;;;;;5029841;28;20021;-72
2022/02/07 01:02:54;;;;;;;70.50;36.75;;;4.40;99.90;;;;;;5029964;28;20438;-72
2022/02/07 01:05:19;;;;;;;60.35;34.78;;;4.40;99.90;;;;;;5030149;28;20077;-72
2022/02/07 01:07:48;;;;;;;61.72;34.67;;;4.50;99.90;;;;;;5032258;28;20037;-72
2022/02/07 01:10:19;;;;;;;62.60;34.78;;;4.40;99.90;;;;;;5026907;28;20029;-72
2022/02/07 01:57:59;;;;;;;60.72;33.17;;;4.00;99.90;;;;;;5027363;28;20512;-72
2022/02/07 02:00:25;;;;;;;53.92;30.50;;;4.00;99.90;;;;;;5029362;28;20105;-72
2022/02/07 02:02:51;;;;;;;60.28;32.60;;;4.10;99.90;;;;;;5029374;28;20393;-72
2022/02/07 02:05:17;;;;;;;58.28;30.38;;;4.00;99.90;;;;;;5029321;28;20026;-72
2022/02/07 02:07:45;;;;;;;59.70;32.40;;;3.90;99.90;;;;;;5030196;28;20037;-72
2022/02/07 02:10:11;;;;;;;70.43;34.47;;;3.90;99.90;;;;;;5025732;28;20038;-72
2022/02/07 02:12:50;;;;;;;64.38;34.22;;;3.80;99.90;;;;;;5032191;28;20044;-72
2022/02/07 02:15:38;;;;;;;65.18;34.08;;;3.80;99.90;;;;;;5031415;28;20116;-72
2022/02/07 02:47:46;;;;;;;79.05;41.65;;;4.00;99.90;;;;;;5032117;28;20049;-72
2022/02/07 02:50:30;;;;;;;86.22;44.97;;;3.90;99.90;;;;;;5029249;28;20029;-72
2022/02/07 02:53:04;;;;;;;86.15;44.28;;;3.90;99.90;;;;;;5032114;28;20022;-72
2022/02/07 02:55:31;;;;;;;89.45;46.30;;;4.10;99.90;;;;;;5032247;28;20463;-72
2022/02/07 02:57:57;;;;;;;74.70;39.58;;;4.20;99.90;;;;;;5027733;28;20064;-72
2022/02/07 03:00:24;;;;;;;63.28;36.45;;;4.20;99.90;;;;;;5029556;28;20036;-72
2022/02/07 03:02:50;;;;;;;68.32;36.47;;;4.20;99.90;;;;;;5032674;28;20168;-72
2022/02/07 03:05:16;;;;;;;80.32;39.22;;;4.20;99.90;;;;;;5027284;28;20116;-72
2022/02/07 03:07:43;;;;;;;68.13;39.55;;;4.20;99.90;;;;;;5033490;28;20719;-72
2022/02/07 03:10:09;;;;;;;72.28;40.00;;;4.20;99.90;;;;;;5033183;28;20033;-72
2022/02/07 03:12:58;;;;;;;67.25;37.15;;;4.30;99.90;;;;;;5032558;28;20037;-72
2022/02/07 03:18:07;;;;;;;59.13;35.13;;;4.30;99.90;;;;;;5026539;28;20494;-72
2022/02/07 03:20:33;;;;;;;46.40;28.33;;;4.20;99.90;;;;;;5023511;28;20042;-72
2022/02/07 03:22:58;;;;;;;49.00;26.05;;;4.10;99.90;;;;;;5030457;28;20092;-72
2022/02/07 03:25:24;;;;;;;41.63;25.27;;;4.10;99.90;;;;;;5031738;28;20025;-72
2022/02/07 03:27:49;;;;;;;47.60;25.63;;;4.10;99.90;;;;;;5031597;28;20043;-72
2022/02/07 03:30:15;;;;;;;44.42;26.10;;;4.20;99.90;;;;;;5030054;28;20117;-72
2022/02/07 03:32:41;;;;;;;45.65;25.05;;;4.20;99.90;;;;;;5030958;28;20467;-72
2022/02/07 03:35:07;;;;;;;48.50;26.70;;;4.20;99.90;;;;;;5032160;28;20034;-72
2022/02/07 03:37:33;;;;;;;47.80;24.83;;;4.30;99.90;;;;;;5033272;28;20080;-72
2022/02/07 03:39:58;;;;;;;43.00;25.75;;;4.20;99.80;;;;;;5028834;28;20073;-72
2022/02/07 03:42:24;;;;;;;52.53;26.02;;;4.30;99.90;;;;;;5028102;28;20471;-72
2022/02/07 03:44:50;;;;;;;49.55;27.25;;;4.30;99.90;;;;;;5029846;28;20394;-73
2022/02/07 03:47:15;;;;;;;50.72;27.60;;;4.30;99.90;;;;;;5032240;28;20087;-72
2022/02/07 03:49:41;;;;;;;47.63;28.13;;;4.30;99.90;;;;;;5030615;28;20037;-72
2022/02/07 03:52:08;;;;;;;60.80;32.70;;;4.40;99.90;;;;;;5031251;28;20029;-72
2022/02/07 03:54:35;;;;;;;63.00;33.65;;;4.40;99.90;;;;;;5031441;28;20025;-72
2022/02/07 03:57:01;;;;;;;57.42;32.17;;;4.40;99.90;;;;;;5031276;28;20403;-72
2022/02/07 03:59:27;;;;;;;56.45;32.38;;;4.40;99.90;;;;;;5031919;28;20424;-72
2022/02/07 04:01:52;;;;;;;58.10;30.77;;;4.50;99.90;;;;;;5030290;28;20044;-71
2022/02/07 04:04:18;;;;;;;57.92;32.03;;;4.50;99.90;;;;;;5023789;28;20029;-71
2022/02/07 04:06:44;;;;;;;48.78;28.95;;;4.40;99.90;;;;;;5024146;28;20033;-71
2022/02/07 04:09:12;;;;;;;60.85;31.20;;;4.40;99.90;;;;;;5017659;28;20049;-71
2022/02/07 04:11:53;;;;;;;59.78;33.85;;;4.50;99.90;;;;;;5024682;28;20120;-71
2022/02/07 04:14:22;;;;;;;60.90;31.60;;;4.50;99.90;;;;;;5023323;28;20029;-71
2022/02/07 04:16:48;;;;;;;56.58;32.58;;;4.60;99.90;;;;;;5024169;28;20065;-71
2022/02/07 04:19:18;;;;;;;57.80;31.35;;;4.60;99.90;;;;;;5023367;28;20112;-71
2022/02/07 04:21:45;;;;;;;50.17;28.08;;;4.70;99.90;;;;;;5022785;28;20026;-72
2022/02/07 04:24:11;;;;;;;54.50;29.35;;;4.60;99.90;;;;;;5020217;28;20021;-71
2022/02/07 04:26:37;;;;;;;50.67;26.35;;;4.50;99.90;;;;;;5018848;28;20104;-71
2022/02/07 04:29:03;;;;;;;43.25;22.90;;;4.40;99.90;;;;;;5020088;28;20039;-71
2022/02/07 04:31:29;;;;;;;44.83;23.75;;;4.40;99.90;;;;;;5022024;28;20021;-71
2022/02/07 04:33:55;;;;;;;43.67;24.10;;;4.40;99.60;;;;;;5027202;28;20021;-71
2022/02/07 04:36:22;;;;;;;44.67;23.88;;;4.50;99.70;;;;;;5026720;28;20025;-70
2022/02/07 04:38:48;;;;;;;46.53;25.25;;;4.30;99.90;;;;;;5026433;28;20041;-72
2022/02/07 04:41:14;;;;;;;42.13;23.20;;;4.40;99.90;;;;;;5030255;28;20343;-71
2022/02/07 04:43:46;;;;;;;32.70;18.92;;;4.30;99.90;;;;;;5026239;28;20029;-71
2022/02/07 04:49:25;;;;;;;34.45;21.05;;;4.10;99.90;;;;;;4990967;28;20066;-71
2022/02/07 05:00:05;;;;;;;30.92;17.20;;;3.60;99.90;;;;;;5027801;28;20047;-71
2022/02/07 05:02:42;;;;;;;33.25;16.48;;;3.60;99.90;;;;;;5025259;28;20148;-71
2022/02/07 05:13:39;;;;;;;29.48;19.83;;;3.60;99.90;;;;;;5024822;28;20029;-71
2022/02/07 05:16:20;;;;;;;24.10;13.75;;;3.40;99.90;;;;;;5026805;28;20049;-71
2022/02/07 05:18:49;;;;;;;22.45;12.73;;;3.50;99.90;;;;;;5026259;28;20052;-70
2022/02/07 05:21:15;;;;;;;24.20;12.55;;;3.40;99.90;;;;;;5026779;28;20052;-70
2022/02/07 05:23:41;;;;;;;22.52;12.43;;;3.50;99.90;;;;;;5022009;28;20445;-70
2022/02/07 05:26:07;;;;;;;25.00;13.43;;;3.60;99.90;;;;;;5017623;28;20045;-71
2022/02/07 05:28:32;;;;;;;28.30;14.35;;;3.60;99.90;;;;;;5024709;28;20034;-71
2022/02/07 05:30:58;;;;;;;24.88;13.70;;;3.70;99.90;;;;;;5026814;28;20041;-72
2022/02/07 05:33:24;;;;;;;25.50;14.68;;;3.80;99.90;;;;;;5020488;28;20030;-71
2022/02/07 05:35:49;;;;;;;31.27;14.48;;;3.70;99.90;;;;;;5023543;28;20051;-71
2022/02/07 05:38:15;;;;;;;27.27;15.48;;;3.80;99.90;;;;;;5021708;28;20036;-71
2022/02/07 05:40:55;;;;;;;27.45;15.40;;;3.80;99.90;;;;;;5016378;28;20033;-70
2022/02/07 05:43:20;;;;;;;23.20;12.98;;;3.90;99.90;;;;;;5022869;28;20025;-70
2022/02/07 05:45:46;;;;;;;26.52;14.48;;;3.80;99.90;;;;;;5023923;28;20030;-70
2022/02/07 05:48:12;;;;;;;31.33;16.40;;;3.90;99.90;;;;;;5024658;28;20041;-71
2022/02/07 05:50:37;;;;;;;27.90;15.05;;;3.80;99.90;;;;;;5025767;28;20506;-70
2022/02/07 05:53:03;;;;;;;23.17;12.75;;;3.90;99.90;;;;;;5028825;28;20034;-71
2022/02/07 05:55:29;;;;;;;24.88;13.25;;;3.80;99.90;;;;;;5030458;28;20060;-71
2022/02/07 05:57:54;;;;;;;28.30;15.65;;;3.70;99.90;;;;;;5030500;28;20057;-71
2022/02/07 06:00:20;;;;;;;20.83;11.82;;;3.70;99.90;;;;;;5030303;28;20044;-71
2022/02/07 06:02:46;;;;;;;26.75;16.77;;;3.80;99.90;;;;;;5025694;28;20065;-71
2022/02/07 06:05:12;;;;;;;23.00;14.85;;;3.80;99.90;;;;;;5029224;28;20400;-71
2022/02/07 06:07:38;;;;;;;24.50;16.08;;;3.80;99.90;;;;;;5028919;28;20639;-70
2022/02/07 06:10:05;;;;;;;32.10;19.90;;;3.80;99.90;;;;;;5030237;28;20027;-71
2022/02/07 06:12:35;;;;;;;23.75;13.07;;;3.80;99.90;;;;;;5030737;28;20030;-71
2022/02/07 06:15:01;;;;;;;15.73;9.18;;;3.80;99.90;;;;;;5028439;28;20036;-71
2022/02/07 06:17:27;;;;;;;15.13;7.90;;;4.00;99.90;;;;;;5029717;28;20508;-71
2022/02/07 06:19:53;;;;;;;20.85;10.60;;;4.00;99.90;;;;;;5029037;28;20095;-70
2022/02/07 06:22:19;;;;;;;14.95;8.60;;;3.90;99.90;;;;;;5031551;28;20042;-71
2022/02/07 06:24:46;;;;;;;16.92;8.48;;;4.10;99.90;;;;;;5029301;28;20033;-70
2022/02/07 06:27:12;;;;;;;16.90;8.48;;;4.30;99.90;;;;;;5027646;28;20037;-70
2022/02/07 06:29:39;;;;;;;20.02;11.25;;;4.20;99.90;;;;;;5030291;28;20364;-71
2022/02/07 06:32:05;;;;;;;15.23;8.90;;;4.10;99.90;;;;;;5025221;28;20151;-71
2022/02/07 06:34:31;;;;;;;11.45;7.85;;;4.10;99.90;;;;;;5029113;28;20128;-70
2022/02/07 06:36:57;;;;;;;8.77;4.82;;;4.30;99.90;;;;;;5026115;28;20534;-70
2022/02/07 06:39:23;;;;;;;10.43;5.80;;;4.50;99.90;;;;;;5028185;28;20041;-71
2022/02/07 06:41:48;;;;;;;10.68;5.68;;;4.60;99.90;;;;;;5025563;28;20060;-70
2022/02/07 06:44:14;;;;;;;10.60;5.78;;;4.70;99.90;;;;;;5024713;28;20112;-70
2022/02/07 06:46:40;;;;;;;10.52;6.05;;;4.60;99.90;;;;;;5027436;28;20492;-70
2022/02/07 06:49:06;;;;;;;13.85;6.75;;;4.60;99.90;;;;;;5028564;28;20040;-70
2022/02/07 06:51:31;;;;;;;10.20;5.97;;;4.50;99.90;;;;;;5026008;28;20037;-71
2022/02/07 06:53:57;;;;;;;8.60;5.68;;;4.50;99.90;;;;;;5023020;28;20091;-70
2022/02/07 06:56:23;;;;;;;13.63;8.32;;;4.50;99.90;;;;;;5026355;28;20038;-70
2022/02/07 06:58:49;;;;;;;11.57;6.82;;;4.30;99.90;;;;;;5027459;28;20065;-70
2022/02/07 07:01:15;;;;;;;12.52;6.30;;;4.10;99.90;;;;;;5029054;28;20030;-70
2022/02/07 07:03:44;;;;;;;13.23;6.43;;;4.00;99.90;;;;;;5028623;28;20052;-70
2022/02/07 07:06:11;;;;;;;13.38;7.22;;;4.20;99.90;;;;;;5026827;28;20034;-71
2022/02/07 07:08:42;;;;;;;11.80;7.18;;;4.40;99.90;;;;;;5025992;28;20033;-69
2022/02/07 07:11:09;;;;;;;18.92;10.40;;;4.30;99.90;;;;;;5027901;28;20752;-68
2022/02/07 07:13:47;;;;;;;24.48;11.73;;;4.00;99.90;;;;;;5029370;28;20065;-69
2022/02/07 07:18:47;;;;;;;19.02;11.00;;;3.70;99.90;;;;;;5026491;28;20080;-71
2022/02/07 07:21:12;;;;;;;16.60;9.77;;;3.50;99.90;;;;;;5025177;28;20060;-70
2022/02/07 07:23:39;;;;;;;16.10;9.70;;;3.60;99.90;;;;;;5023233;28;20073;-70
2022/02/07 07:26:05;;;;;;;16.58;8.57;;;3.80;99.90;;;;;;5023490;28;20064;-70
2022/02/07 07:28:30;;;;;;;17.13;8.57;;;3.80;99.90;;;;;;5025925;28;20460;-70
2022/02/07 07:30:58;;;;;;;12.18;7.82;;;4.10;99.90;;;;;;5018526;28;20061;-70
2022/02/07 07:33:25;;;;;;;31.50;20.52;;;4.30;99.90;;;;;;5024197;28;20598;-69
2022/02/07 07:35:52;;;;;;;19.73;11.07;;;4.50;99.90;;;;;;5023572;28;20053;-69
2022/02/07 07:38:18;;;;;;;14.93;9.75;;;4.40;99.90;;;;;;5020255;28;20033;-70
2022/02/07 07:40:44;;;;;;;13.05;8.05;;;4.30;99.90;;;;;;5021110;28;20479;-70
2022/02/07 07:43:11;;;;;;;46.22;31.42;;;4.40;99.90;;;;;;5023600;28;20087;-70
2022/02/07 07:45:44;;;;;;;28.48;20.60;;;4.50;99.90;;;;;;5024423;28;20395;-69
2022/02/07 07:48:13;;;;;;;14.93;9.57;;;4.50;99.90;;;;;;5020301;28;20029;-69
2022/02/07 07:50:52;;;;;;;13.07;8.98;;;4.50;99.90;;;;;;5024724;28;20128;-70
2022/02/07 08:01:47;;;;;;;12.88;7.03;;;4.60;99.90;;;;;;5020279;28;20075;-70
2022/02/07 08:04:16;;;;;;;16.58;10.90;;;4.50;99.90;;;;;;5024511;28;20064;-69
2022/02/07 08:06:57;;;;;;;12.73;7.75;;;4.70;99.90;;;;;;5023106;28;20589;-70
2022/02/07 08:12:11;;;;;;;11.80;7.28;;;4.70;99.90;;;;;;5012679;28;20395;-69
2022/02/07 08:14:37;;;;;;;12.10;7.00;;;4.80;99.90;;;;;;5023016;28;20057;-69
2022/02/07 08:17:04;;;;;;;10.52;5.47;;;4.70;99.90;;;;;;5023431;28;20080;-69
2022/02/07 08:19:30;;;;;;;10.35;6.38;;;4.90;99.90;;;;;;5019909;28;20124;-70
2022/02/07 08:21:57;;;;;;;8.18;4.88;;;5.00;99.90;;;;;;5016966;28;20025;-69
2022/02/07 08:24:23;;;;;;;11.52;5.80;;;5.20;99.90;;;;;;5018063;28;20022;-69
2022/02/07 08:26:49;;;;;;;7.35;3.88;;;5.30;99.90;;;;;;5022396;28;20040;-70
2022/02/07 08:29:15;;;;;;;11.27;6.90;;;5.50;98.70;;;;;;5019445;28;20032;-70
2022/02/07 08:31:41;;;;;;;8.18;4.53;;;5.60;98.50;;;;;;5018319;28;20029;-69
2022/02/07 08:34:06;;;;;;;14.25;8.32;;;5.50;99.10;;;;;;5021690;28;20037;-69
2022/02/07 08:36:32;;;;;;;9.35;5.05;;;5.50;99.10;;;;;;5023237;28;20380;-70
2022/02/07 08:38:58;;;;;;;16.42;10.38;;;5.70;98.40;;;;;;5020228;28;20040;-69
2022/02/07 08:41:25;;;;;;;23.05;13.88;;;5.70;98.60;;;;;;5021468;28;20499;-70
2022/02/07 08:43:54;;;;;;;14.88;8.50;;;5.70;99.40;;;;;;5022898;28;20029;-70
2022/02/07 08:46:20;;;;;;;10.48;7.00;;;5.60;99.90;;;;;;5024079;28;20029;-69
2022/02/07 08:48:46;;;;;;;9.30;5.28;;;5.50;99.90;;;;;;5022625;28;20032;-70
2022/02/07 08:51:11;;;;;;;7.95;4.07;;;5.70;99.60;;;;;;5018045;28;20026;-70
2022/02/07 08:53:41;;;;;;;6.90;3.47;;;5.90;97.90;;;;;;5025340;28;20498;-70
2022/02/07 08:56:09;;;;;;;5.45;2.78;;;6.20;97.10;;;;;;5015609;28;20475;-70
2022/02/07 08:58:37;;;;;;;6.70;2.38;;;6.30;96.80;;;;;;5022528;28;20090;-69
2022/02/07 09:01:16;;;;;;;5.70;2.22;;;6.40;95.70;;;;;;5022956;28;20067;-70
2022/02/07 09:06:42;;;;;;;5.18;2.58;;;6.60;95.90;;;;;;5026980;28;20048;-69
2022/02/07 09:09:10;;;;;;;6.28;2.95;;;6.40;95.40;;;;;;5026993;28;20025;-70
2022/02/07 09:11:38;;;;;;;3.58;1.67;;;6.40;95.80;;;;;;5027221;28;20116;-70
2022/02/07 09:14:11;;;;;;;4.03;2.05;;;6.40;95.10;;;;;;5026946;28;20049;-70
2022/02/07 09:16:39;;;;;;;3.97;1.75;;;6.50;95.00;;;;;;5026726;28;20510;-70
2022/02/07 09:19:05;;;;;;;3.30;1.48;;;6.50;94.00;;;;;;5027347;28;20168;-70
2022/02/07 09:21:31;;;;;;;3.35;1.80;;;6.70;93.70;;;;;;5027021;28;20030;-70
2022/02/07 09:23:58;;;;;;;6.85;3.00;;;6.70;93.80;;;;;;5027170;28;20039;-70
2022/02/07 09:26:25;;;;;;;4.40;2.38;;;6.70;94.10;;;;;;5027189;28;20033;-70
2022/02/07 09:28:51;;;;;;;3.95;2.25;;;6.70;93.20;;;;;;5027259;28;20050;-70
2022/02/07 09:31:18;;;;;;;4.97;2.65;;;6.70;93.30;;;;;;5027789;28;20104;-70
2022/02/07 09:33:45;;;;;;;4.50;2.47;;;6.70;93.90;;;;;;5027253;28;20041;-70
2022/02/07 09:36:12;;;;;;;4.13;2.03;;;6.80;93.10;;;;;;5027433;28;20034;-70
2022/02/07 09:38:37;;;;;;;2.60;1.10;;;7.00;92.60;;;;;;5026426;28;20506;-70
2022/02/07 09:41:04;;;;;;;5.55;2.55;;;7.10;91.70;;;;;;5026555;28;20042;-70
2022/02/07 09:43:32;;;;;;;3.03;1.33;;;7.30;92.50;;;;;;5026689;28;20041;-70
2022/02/07 09:46:10;;;;;;;1.50;0.68;;;7.40;92.60;;;;;;5026755;28;20051;-70
2022/02/07 09:48:39;;;;;;;5.15;2.42;;;7.50;89.40;;;;;;5025928;28;20041;-70
2022/02/07 09:51:06;;;;;;;5.72;2.88;;;7.40;92.70;;;;;;5026346;28;20033;-70
2022/02/07 09:53:33;;;;;;;5.47;2.92;;;7.10;93.70;;;;;;5026423;28;20123;-70
2022/02/07 09:56:04;;;;;;;5.90;3.15;;;6.90;94.90;;;;;;5026783;28;20040;-70
2022/02/07 09:58:34;;;;;;;7.97;3.20;;;6.80;95.20;;;;;;5025647;28;20769;-70
2022/02/07 10:01:03;;;;;;;6.63;3.15;;;6.80;95.20;;;;;;5026825;28;20056;-70
2022/02/07 10:03:42;;;;;;;5.63;2.28;;;6.90;95.30;;;;;;5026568;28;20041;-70
2022/02/07 10:06:18;;;;;;;5.03;2.67;;;6.90;94.90;;;;;;5026833;28;20079;-70
2022/02/07 10:09:00;;;;;;;4.88;2.35;;;6.90;95.40;;;;;;5025031;28;20041;-70
2022/02/07 10:11:44;;;;;;;4.97;2.80;;;7.00;92.90;;;;;;5026859;28;20033;-70
2022/02/07 10:14:20;;;;;;;16.30;10.75;;;7.10;93.90;;;;;;5027051;28;20026;-70
2022/02/07 10:38:52;;;;;;;28.27;15.68;;;7.40;83.90;;;;;;5028024;28;20056;-71
2022/02/07 10:41:42;;;;;;;4.40;2.08;;;7.50;84.60;;;;;;5027426;28;20102;-70
2022/02/07 10:47:17;;;;;;;0.70;0.22;;;7.60;85.20;;;;;;5026851;28;20072;-70
2022/02/07 10:49:58;;;;;;;1.75;0.43;;;7.70;83.20;;;;;;5019714;28;20025;-70
2022/02/07 10:52:26;;;;;;;0.75;0.30;;;7.70;86.90;;;;;;5026244;28;20067;-70
2022/02/07 10:54:51;;;;;;;1.98;0.50;;;7.70;88.70;;;;;;5029155;28;20112;-70
2022/02/07 10:57:19;;;;;;;4.25;0.95;;;7.50;90.60;;;;;;5029260;28;20117;-70
2022/02/07 10:59:45;;;;;;;3.20;1.13;;;7.50;90.40;;;;;;5030157;28;20548;-70
2022/02/07 11:04:46;;;;;;;3.38;0.60;;;7.40;88.10;;;;;;5029614;28;20061;-70
2022/02/07 11:07:13;;;;;;;2.83;0.65;;;7.50;90.00;;;;;;5028176;28;20036;-70
2022/02/07 11:09:53;;;;;;;1.10;0.40;;;7.60;88.80;;;;;;5029670;28;20120;-70
2022/02/07 11:13:24;;;;;;;0.95;0.30;;;7.70;89.90;;;;;;5029335;28;20065;-70
2022/02/07 11:15:29;;;;;;;2.03;0.80;;;7.70;88.00;;;;;;5021616;28;20438;-70
2022/02/07 11:25:45;;;;;;;2.20;1.30;;;7.80;86.60;;;;;;5028950;28;20053;-70
2022/02/07 11:28:37;;;;;;;1.77;0.40;;;7.90;85.60;;;;;;5029214;28;20095;-70
2022/02/07 11:31:05;;;;;;;2.85;1.35;;;8.10;85.70;;;;;;5027293;28;20037;-70
2022/02/07 11:33:41;;;;;;;1.80;1.00;;;8.10;84.50;;;;;;5028883;28;20537;-70
2022/02/07 11:36:24;;;;;;;1.05;0.40;;;8.30;85.10;;;;;;5028611;28;20034;-70
2022/02/07 11:39:02;;;;;;;1.35;0.45;;;8.30;84.50;;;;;;5028181;28;20052;-70
2022/02/07 11:41:28;;;;;;;0.60;0.40;;;8.30;84.80;;;;;;5027647;28;20506;-71
2022/02/07 11:43:54;;;;;;;1.85;0.55;;;8.20;84.10;;;;;;5027313;28;20116;-71
2022/02/07 11:46:21;;;;;;;3.63;0.52;;;8.30;84.90;;;;;;5028529;28;20033;-70
2022/02/07 11:48:50;;;;;;;1.17;0.50;;;8.30;85.70;;;;;;5027835;28;20108;-70
2022/02/07 11:51:18;;;;;;;1.13;0.32;;;8.10;84.50;;;;;;5028281;28;20033;-71
2022/02/07 11:53:50;;;;;;;2.40;0.35;;;8.30;86.00;;;;;;5028338;28;20122;-71
2022/02/07 11:56:23;;;;;;;0.80;0.32;;;8.40;86.50;;;;;;5028625;28;20068;-70
2022/02/07 11:58:58;;;;;;;2.10;0.68;;;8.60;84.30;;;;;;5028222;28;20391;-71
2022/02/07 12:01:59;;;;;;;1.45;0.40;;;8.60;83.30;;;;;;5028499;28;20116;-71
2022/02/07 12:04:44;;;;;;;1.25;0.65;;;8.70;83.30;;;;;;5027563;28;20036;-71
2022/02/07 12:07:24;;;;;;;2.38;0.43;;;8.60;82.60;;;;;;5026467;28;20051;-71
2022/02/07 12:12:48;;;;;;;0.75;0.50;;;8.80;82.80;;;;;;5024853;28;20112;-71
2022/02/07 12:15:17;;;;;;;0.65;0.30;;;8.80;82.40;;;;;;5024473;28;20466;-71
2022/02/07 12:17:45;;;;;;;0.98;0.43;;;8.70;82.00;;;;;;5025198;28;20041;-72
2022/02/07 12:20:13;;;;;;;3.40;0.50;;;8.60;81.80;;;;;;5024306;28;20045;-72
2022/02/07 12:22:58;;;;;;;1.45;0.47;;;8.70;82.00;;;;;;5024457;28;20037;-72
2022/02/07 12:25:46;;;;;;;;;;;8.80;81.10;;;;;;5025168;28;20056;-71
2022/02/07 12:28:27;;;;;;;0.93;0.40;;;8.70;81.40;;;;;;5025184;28;19913;-71
2022/02/07 12:31:17;;;;;;;1.05;0.38;;;8.60;80.90;;;;;;5024425;28;20188;-71
2022/02/07 12:33:52;;;;;;;1.90;0.40;;;8.90;80.90;;;;;;5024090;28;20125;-71
2022/02/07 12:36:20;;;;;;;2.10;0.30;;;9.00;80.00;;;;;;5024394;28;20107;-73
2022/02/07 12:38:45;;;;;;;10.05;4.40;;;9.10;79.80;;;;;;5024103;28;20416;-71
2022/02/07 12:41:13;;;;;;;1.27;0.80;;;9.50;78.10;;;;;;5024623;28;20033;-71
2022/02/07 12:43:41;;;;;;;0.65;0.35;;;9.50;74.30;;;;;;5024058;28;20037;-71
2022/02/07 12:46:10;;;;;;;1.95;0.57;;;9.50;73.90;;;;;;5024309;28;20036;-71
2022/02/07 12:48:40;;;;;;;1.48;0.70;;;9.50;74.70;;;;;;5023273;28;20030;-71
2022/02/07 12:51:06;;;;;;;0.52;0.20;;;9.80;73.20;;;;;;5024932;28;20103;-71
2022/02/07 12:53:32;;;;;;;3.40;0.30;;;9.80;69.40;;;;;;5024185;28;20029;-71
2022/02/07 12:56:00;;;;;;;1.70;0.32;;;9.90;69.30;;;;;;5024268;28;20037;-71
2022/02/07 12:58:27;;;;;;;1.45;0.47;;;9.80;67.40;;;;;;5023553;28;20041;-71
2022/02/07 13:00:54;;;;;;;1.75;0.52;;;9.90;65.50;;;;;;5024794;28;20095;-71
2022/02/07 13:03:20;;;;;;;2.60;1.00;;;10.20;65.50;;;;;;5024267;28;20025;-71
2022/02/07 13:05:48;;;;;;;0.35;0.15;;;10.40;64.40;;;;;;5023551;28;20037;-71
2022/02/07 13:08:15;;;;;;;1.83;0.55;;;10.10;68.10;;;;;;5006291;28;20391;-72
2022/02/07 13:10:42;;;;;;;2.40;0.30;;;10.10;69.00;;;;;;5024374;28;20045;-71
2022/02/07 13:13:29;;;;;;;1.00;0.10;;;9.90;63.00;;;;;;5024843;28;20048;-71
2022/02/07 13:15:56;;;;;;;1.65;0.28;;;9.80;61.50;;;;;;5024520;28;20064;-71
2022/02/07 13:18:22;;;;;;;0.28;0.13;;;10.00;62.10;;;;;;5023613;28;20044;-71
2022/02/07 13:20:50;;;;;;;1.45;0.80;;;10.20;61.90;;;;;;5023702;28;20380;-71
2022/02/07 13:23:17;;;;;;;2.28;0.32;;;10.40;60.60;;;;;;5023817;28;20029;-71
2022/02/07 13:25:48;;;;;;;0.15;0.05;;;10.00;57.60;;;;;;5024034;28;20140;-71
2022/02/07 13:28:26;;;;;;;0.50;0.10;;;10.20;58.30;;;;;;5024155;28;20129;-72
2022/02/07 13:30:58;;;;;;;0.10;0.10;;;10.10;56.40;;;;;;5020352;28;20041;-72
2022/02/07 13:33:24;;;;;;;0.20;0.00;;;10.00;57.00;;;;;;5023998;28;20395;-71
2022/02/07 13:35:54;;;;;;;0.47;0.40;;;9.90;52.90;;;;;;5024407;28;20038;-71
2022/02/07 13:38:21;;;;;;;0.15;0.15;;;10.00;53.70;;;;;;5023946;28;20055;-71
2022/02/07 13:40:49;;;;;;;0.55;0.15;;;10.00;52.70;;;;;;5023774;28;20516;-71
2022/02/07 13:43:26;;;;;;;0.10;0.03;;;10.00;53.00;;;;;;5024854;28;20034;-71
2022/02/07 13:45:55;;;;;;;0.93;0.40;;;10.20;52.80;;;;;;5027043;28;20037;-69
2022/02/07 13:48:23;;;;;;;0.65;0.05;;;10.20;53.80;;;;;;5026961;28;20029;-69
2022/02/07 13:50:54;;;;;;;0.10;0.10;;;10.20;51.40;;;;;;5026855;28;20102;-69
2022/02/07 13:53:22;;;;;;;0.40;0.20;;;10.20;52.60;;;;;;5027407;28;20116;-70
2022/02/07 13:55:53;;;;;;;0.75;0.38;;;10.20;51.80;;;;;;5026398;28;20037;-70
2022/02/07 13:58:37;;;;;;;0.50;0.08;;;10.10;52.10;;;;;;5025653;28;20107;-69
2022/02/07 14:01:05;;;;;;;0.52;0.20;;;10.20;50.00;;;;;;5025480;28;20529;-70
2022/02/07 14:03:40;;;;;;;0.00;0.00;;;10.30;51.60;;;;;;5026820;28;20033;-69
2022/02/07 14:06:08;;;;;;;1.38;0.40;;;10.50;51.50;;;;;;5026906;28;20025;-70
2022/02/07 14:08:53;;;;;;;0.38;0.13;;;10.10;50.70;;;;;;5028326;28;20037;-70
2022/02/07 14:11:21;;;;;;;0.25;0.10;;;10.10;51.20;;;;;;5030433;28;20030;-70
2022/02/07 14:13:50;;;;;;;0.00;0.00;;;10.10;51.10;;;;;;5029967;28;20038;-70
2022/02/07 14:16:18;;;;;;;0.73;0.40;;;10.00;52.10;;;;;;5030927;28;20037;-70
2022/02/07 14:18:47;;;;;;;2.53;0.30;;;10.00;52.50;;;;;;5030475;28;20041;-69
2022/02/07 14:21:18;;;;;;;2.22;0.17;;;10.20;52.40;;;;;;5030281;28;20069;-69
2022/02/07 14:23:45;;;;;;;0.20;0.05;;;10.20;51.20;;;;;;5029766;28;20515;-70
2022/02/07 14:26:16;;;;;;;0.47;0.10;;;10.20;51.80;;;;;;5030809;28;20090;-74
2022/02/07 14:28:42;;;;;;;1.45;0.13;;;10.30;51.60;;;;;;5029971;28;20053;-70
2022/02/07 14:31:11;;;;;;;0.50;0.20;;;10.20;51.90;;;;;;5030267;28;20041;-70
2022/02/07 14:33:38;;;;;;;1.48;0.20;;;10.30;51.90;;;;;;5029920;28;20471;-71
2022/02/07 14:36:03;;;;;;;0.43;0.05;;;10.10;51.50;;;;;;5030260;28;20056;-70
2022/02/07 14:38:29;;;;;;;0.55;0.30;;;10.00;50.60;;;;;;5029695;28;20037;-70
2022/02/07 14:40:55;;;;;;;0.20;0.00;;;10.10;52.30;;;;;;5021782;28;20026;-70
2022/02/07 14:43:27;;;;;;;1.30;0.30;;;10.10;51.80;;;;;;5025220;28;20037;-70
2022/02/07 14:46:00;;;;;;;6.78;1.23;;;10.40;52.50;;;;;;5027896;28;20128;-70
2022/02/07 14:48:26;;;;;;;1.35;0.32;;;10.30;51.70;;;;;;5028706;28;20553;-70
2022/02/07 14:50:53;;;;;;;0.98;0.55;;;10.10;51.10;;;;;;5029891;28;20033;-69
2022/02/07 14:53:19;;;;;;;0.52;0.20;;;10.30;52.60;;;;;;5029849;28;20025;-70
2022/02/07 14:55:45;;;;;;;3.28;1.08;;;10.10;50.20;;;;;;5030091;28;20068;-69
2022/02/07 14:58:11;;;;;;;0.20;0.00;;;10.20;51.50;;;;;;5029693;28;20085;-70
2022/02/07 15:00:38;;;;;;;21.25;11.35;;;10.20;51.50;;;;;;5028629;28;20049;-69
2022/02/07 15:03:05;;;;;;;2.38;0.52;;;10.10;51.40;;;;;;5029011;28;20900;-69
2022/02/07 15:05:34;;;;;;;3.50;1.80;;;10.10;53.00;;;;;;5028796;28;20099;-69
2022/02/07 15:07:59;;;;;;;1.83;0.50;;;10.30;53.40;;;;;;5029624;28;20037;-69
2022/02/07 15:10:25;;;;;;;3.60;2.00;;;10.10;52.20;;;;;;5029172;28;20494;-69
2022/02/07 15:12:51;;;;;;;0.13;0.10;;;10.20;51.30;;;;;;5029606;28;20029;-69
2022/02/07 15:15:17;;;;;;;1.00;0.57;;;10.10;51.10;;;;;;5029205;28;20036;-69
2022/02/07 15:17:44;;;;;;;0.70;0.35;;;10.10;51.40;;;;;;5029507;28;20041;-69
2022/02/07 15:20:12;;;;;;;2.40;1.20;;;10.00;51.10;;;;;;5028045;28;20095;-69
2022/02/07 15:22:45;;;;;;;4.30;1.42;;;10.00;51.00;;;;;;5028880;28;20045;-69
2022/02/07 15:25:17;;;;;;;2.03;1.02;;;10.00;51.50;;;;;;5029307;28;20025;-70
2022/02/07 15:27:42;;;;;;;0.70;0.20;;;10.00;51.10;;;;;;5029193;28;20034;-69
2022/02/07 15:30:08;;;;;;;0.15;0.10;;;10.00;49.40;;;;;;5028779;28;20476;-70
2022/02/07 15:32:39;;;;;;;0.75;0.38;;;9.90;50.00;;;;;;5028409;28;20403;-69
2022/02/07 15:35:05;;;;;;;1.08;0.32;;;9.80;50.30;;;;;;5028662;28;20033;-71